sensor_id;sensor_type;location;lat;lon;timestamp;P1;durP1;ratioP1;P2;durP2;ratioP2
67108;SDS011;54027;50.786;7.058;2023-09-19T00:01:32;7.93;;;1.77;;
67108;SDS011;54027;50.786;7.058;2023-09-19T00:03:58;2.95;;;1.67;;
67108;SDS011;54027;50.786;7.058;2023-09-19T00:06:24;3.13;;;1.70;;
67108;SDS011;54027;50.786;7.058;2023-09-19T00:08:51;4.25;;;1.70;;
67108;SDS011;54027;50.786;7.058;2023-09-19T00:11:17;4.07;;;1.73;;
67108;SDS011;54027;50.786;7.058;2023-09-19T00:13:42;6.35;;;1.75;;
67108;SDS011;54027;50.786;7.058;2023-09-19T00:16:09;8.25;;;2.35;;
67108;SDS011;54027;50.786;7.058;2023-09-19T00:18:39;3.03;;;1.73;;
67108;SDS011;54027;50.786;7.058;2023-09-19T00:21:04;3.60;;;1.48;;
67108;SDS011;54027;50.786;7.058;2023-09-19T00:23:30;4.82;;;1.92;;
67108;SDS011;54027;50.786;7.058;2023-09-19T00:25:59;6.03;;;1.95;;
67108;SDS011;54027;50.786;7.058;2023-09-19T00:28:26;6.53;;;1.95;;
67108;SDS011;54027;50.786;7.058;2023-09-19T00:30:52;2.90;;;1.80;;
67108;SDS011;54027;50.786;7.058;2023-09-19T00:33:19;4.32;;;1.92;;
67108;SDS011;54027;50.786;7.058;2023-09-19T00:35:51;5.63;;;1.85;;
67108;SDS011;54027;50.786;7.058;2023-09-19T00:38:18;5.88;;;1.80;;
67108;SDS011;54027;50.786;7.058;2023-09-19T00:40:47;6.50;;;1.60;;
67108;SDS011;54027;50.786;7.058;2023-09-19T00:43:13;3.63;;;1.40;;
67108;SDS011;54027;50.786;7.058;2023-09-19T00:45:42;3.92;;;1.52;;
67108;SDS011;54027;50.786;7.058;2023-09-19T00:48:10;5.13;;;1.70;;
67108;SDS011;54027;50.786;7.058;2023-09-19T00:50:36;6.25;;;1.80;;
67108;SDS011;54027;50.786;7.058;2023-09-19T00:53:06;7.22;;;1.38;;
67108;SDS011;54027;50.786;7.058;2023-09-19T00:55:33;4.40;;;1.73;;
67108;SDS011;54027;50.786;7.058;2023-09-19T00:57:59;6.18;;;1.58;;
67108;SDS011;54027;50.786;7.058;2023-09-19T01:00:25;6.68;;;1.92;;
67108;SDS011;54027;50.786;7.058;2023-09-19T01:02:51;2.28;;;1.40;;
67108;SDS011;54027;50.786;7.058;2023-09-19T01:05:16;5.72;;;1.60;;
67108;SDS011;54027;50.786;7.058;2023-09-19T01:07:43;4.43;;;1.50;;
67108;SDS011;54027;50.786;7.058;2023-09-19T01:10:15;5.20;;;1.88;;
67108;SDS011;54027;50.786;7.058;2023-09-19T01:15:31;4.82;;;1.23;;
67108;SDS011;54027;50.786;7.058;2023-09-19T01:23:52;5.32;;;1.60;;
67108;SDS011;54027;50.786;7.058;2023-09-19T01:26:52;5.78;;;1.52;;
67108;SDS011;54027;50.786;7.058;2023-09-19T01:32:03;3.30;;;1.17;;
67108;SDS011;54027;50.786;7.058;2023-09-19T01:34:45;6.20;;;1.50;;
67108;SDS011;54027;50.786;7.058;2023-09-19T01:37:12;6.43;;;1.95;;
67108;SDS011;54027;50.786;7.058;2023-09-19T01:39:39;4.07;;;1.60;;
67108;SDS011;54027;50.786;7.058;2023-09-19T01:42:11;3.78;;;1.83;;
67108;SDS011;54027;50.786;7.058;2023-09-19T01:47:55;7.47;;;1.30;;
67108;SDS011;54027;50.786;7.058;2023-09-19T01:52:36;6.57;;;1.65;;
67108;SDS011;54027;50.786;7.058;2023-09-19T01:55:09;7.55;;;1.48;;
67108;SDS011;54027;50.786;7.058;2023-09-19T01:57:58;7.38;;;1.42;;
67108;SDS011;54027;50.786;7.058;2023-09-19T02:00:29;9.98;;;2.15;;
67108;SDS011;54027;50.786;7.058;2023-09-19T02:02:58;7.45;;;1.60;;
67108;SDS011;54027;50.786;7.058;2023-09-19T02:05:24;4.07;;;1.83;;
67108;SDS011;54027;50.786;7.058;2023-09-19T02:07:51;14.13;;;2.25;;
67108;SDS011;54027;50.786;7.058;2023-09-19T02:10:17;10.13;;;2.17;;
67108;SDS011;54027;50.786;7.058;2023-09-19T02:12:43;9.32;;;2.40;;
67108;SDS011;54027;50.786;7.058;2023-09-19T02:15:08;9.27;;;2.33;;
67108;SDS011;54027;50.786;7.058;2023-09-19T02:17:34;9.07;;;2.67;;
67108;SDS011;54027;50.786;7.058;2023-09-19T02:19:59;11.45;;;2.42;;
67108;SDS011;54027;50.786;7.058;2023-09-19T02:22:26;9.57;;;2.53;;
67108;SDS011;54027;50.786;7.058;2023-09-19T02:24:51;9.02;;;1.98;;
67108;SDS011;54027;50.786;7.058;2023-09-19T02:27:18;11.82;;;2.38;;
67108;SDS011;54027;50.786;7.058;2023-09-19T02:29:44;8.15;;;2.67;;
67108;SDS011;54027;50.786;7.058;2023-09-19T02:32:09;12.73;;;2.20;;
67108;SDS011;54027;50.786;7.058;2023-09-19T02:34:35;11.00;;;1.85;;
67108;SDS011;54027;50.786;7.058;2023-09-19T02:37:05;10.38;;;2.38;;
67108;SDS011;54027;50.786;7.058;2023-09-19T02:39:31;7.93;;;2.35;;
67108;SDS011;54027;50.786;7.058;2023-09-19T02:41:57;7.38;;;2.25;;
67108;SDS011;54027;50.786;7.058;2023-09-19T02:44:22;8.00;;;2.30;;
67108;SDS011;54027;50.786;7.058;2023-09-19T02:46:48;9.95;;;2.20;;
67108;SDS011;54027;50.786;7.058;2023-09-19T02:49:14;16.65;;;2.80;;
67108;SDS011;54027;50.786;7.058;2023-09-19T02:51:39;12.90;;;3.08;;
67108;SDS011;54027;50.786;7.058;2023-09-19T02:54:05;9.20;;;2.70;;
67108;SDS011;54027;50.786;7.058;2023-09-19T02:56:31;7.25;;;2.53;;
67108;SDS011;54027;50.786;7.058;2023-09-19T02:58:57;7.20;;;2.03;;
67108;SDS011;54027;50.786;7.058;2023-09-19T03:01:23;7.80;;;2.30;;
67108;SDS011;54027;50.786;7.058;2023-09-19T03:03:48;18.02;;;3.22;;
67108;SDS011;54027;50.786;7.058;2023-09-19T03:06:14;6.72;;;2.45;;
67108;SDS011;54027;50.786;7.058;2023-09-19T03:08:40;7.80;;;1.80;;
67108;SDS011;54027;50.786;7.058;2023-09-19T03:11:10;6.55;;;1.55;;
67108;SDS011;54027;50.786;7.058;2023-09-19T03:13:37;7.85;;;2.35;;
67108;SDS011;54027;50.786;7.058;2023-09-19T03:16:06;13.10;;;2.35;;
67108;SDS011;54027;50.786;7.058;2023-09-19T03:18:33;8.75;;;2.45;;
67108;SDS011;54027;50.786;7.058;2023-09-19T03:20:59;8.40;;;2.28;;
67108;SDS011;54027;50.786;7.058;2023-09-19T03:23:27;6.63;;;2.10;;
67108;SDS011;54027;50.786;7.058;2023-09-19T03:25:53;5.78;;;2.20;;
67108;SDS011;54027;50.786;7.058;2023-09-19T03:28:20;7.97;;;2.47;;
67108;SDS011;54027;50.786;7.058;2023-09-19T03:30:56;6.05;;;2.35;;
67108;SDS011;54027;50.786;7.058;2023-09-19T03:33:23;9.07;;;2.28;;
67108;SDS011;54027;50.786;7.058;2023-09-19T03:35:51;9.70;;;2.25;;
67108;SDS011;54027;50.786;7.058;2023-09-19T03:38:18;7.63;;;2.63;;
67108;SDS011;54027;50.786;7.058;2023-09-19T03:40:44;12.48;;;2.75;;
67108;SDS011;54027;50.786;7.058;2023-09-19T03:43:09;7.35;;;2.10;;
67108;SDS011;54027;50.786;7.058;2023-09-19T03:45:35;6.55;;;2.08;;
67108;SDS011;54027;50.786;7.058;2023-09-19T03:48:00;7.05;;;2.30;;
67108;SDS011;54027;50.786;7.058;2023-09-19T03:50:25;6.65;;;2.28;;
67108;SDS011;54027;50.786;7.058;2023-09-19T03:52:55;10.75;;;2.13;;
67108;SDS011;54027;50.786;7.058;2023-09-19T03:55:21;8.63;;;2.25;;
67108;SDS011;54027;50.786;7.058;2023-09-19T03:57:49;11.20;;;2.00;;
67108;SDS011;54027;50.786;7.058;2023-09-19T04:00:15;7.13;;;1.92;;
67108;SDS011;54027;50.786;7.058;2023-09-19T04:02:43;9.23;;;2.13;;
67108;SDS011;54027;50.786;7.058;2023-09-19T04:05:08;7.65;;;1.92;;
67108;SDS011;54027;50.786;7.058;2023-09-19T04:07:35;10.50;;;2.63;;
67108;SDS011;54027;50.786;7.058;2023-09-19T04:10:01;8.10;;;2.25;;
67108;SDS011;54027;50.786;7.058;2023-09-19T04:12:26;7.28;;;2.38;;
67108;SDS011;54027;50.786;7.058;2023-09-19T04:14:52;11.27;;;2.22;;
67108;SDS011;54027;50.786;7.058;2023-09-19T04:17:17;7.93;;;2.28;;
67108;SDS011;54027;50.786;7.058;2023-09-19T04:19:43;10.85;;;2.30;;
67108;SDS011;54027;50.786;7.058;2023-09-19T04:22:10;6.57;;;2.10;;
67108;SDS011;54027;50.786;7.058;2023-09-19T04:24:36;8.93;;;2.30;;
67108;SDS011;54027;50.786;7.058;2023-09-19T04:27:03;6.53;;;2.30;;
67108;SDS011;54027;50.786;7.058;2023-09-19T04:29:28;5.82;;;2.22;;
67108;SDS011;54027;50.786;7.058;2023-09-19T04:31:54;11.48;;;2.95;;
67108;SDS011;54027;50.786;7.058;2023-09-19T04:34:19;8.35;;;2.67;;
67108;SDS011;54027;50.786;7.058;2023-09-19T04:36:45;9.43;;;2.55;;
67108;SDS011;54027;50.786;7.058;2023-09-19T04:39:10;12.55;;;3.67;;
67108;SDS011;54027;50.786;7.058;2023-09-19T04:41:37;8.23;;;2.90;;
67108;SDS011;54027;50.786;7.058;2023-09-19T04:44:05;7.35;;;2.47;;
67108;SDS011;54027;50.786;7.058;2023-09-19T04:46:31;6.63;;;2.10;;
67108;SDS011;54027;50.786;7.058;2023-09-19T04:48:56;9.52;;;2.80;;
67108;SDS011;54027;50.786;7.058;2023-09-19T04:51:22;7.20;;;2.40;;
67108;SDS011;54027;50.786;7.058;2023-09-19T04:53:47;13.43;;;2.75;;
67108;SDS011;54027;50.786;7.058;2023-09-19T04:56:13;7.72;;;2.17;;
67108;SDS011;54027;50.786;7.058;2023-09-19T04:58:38;10.18;;;2.47;;
67108;SDS011;54027;50.786;7.058;2023-09-19T05:01:04;12.15;;;2.55;;
67108;SDS011;54027;50.786;7.058;2023-09-19T05:03:29;9.52;;;2.92;;
67108;SDS011;54027;50.786;7.058;2023-09-19T05:05:55;7.88;;;2.60;;
67108;SDS011;54027;50.786;7.058;2023-09-19T05:08:20;6.97;;;2.40;;
67108;SDS011;54027;50.786;7.058;2023-09-19T05:10:47;9.68;;;2.45;;
67108;SDS011;54027;50.786;7.058;2023-09-19T05:13:12;5.85;;;1.80;;
67108;SDS011;54027;50.786;7.058;2023-09-19T05:15:38;10.80;;;2.53;;
67108;SDS011;54027;50.786;7.058;2023-09-19T05:18:04;10.63;;;2.78;;
67108;SDS011;54027;50.786;7.058;2023-09-19T05:20:31;12.20;;;3.35;;
67108;SDS011;54027;50.786;7.058;2023-09-19T05:23:03;7.97;;;2.78;;
67108;SDS011;54027;50.786;7.058;2023-09-19T05:25:36;13.30;;;2.40;;
67108;SDS011;54027;50.786;7.058;2023-09-19T05:28:03;8.98;;;2.42;;
67108;SDS011;54027;50.786;7.058;2023-09-19T05:30:31;6.30;;;2.13;;
67108;SDS011;54027;50.786;7.058;2023-09-19T05:32:57;10.75;;;2.63;;
67108;SDS011;54027;50.786;7.058;2023-09-19T05:35:23;11.57;;;2.30;;
67108;SDS011;54027;50.786;7.058;2023-09-19T05:37:50;7.13;;;2.13;;
67108;SDS011;54027;50.786;7.058;2023-09-19T05:40:17;9.90;;;2.55;;
67108;SDS011;54027;50.786;7.058;2023-09-19T05:42:42;6.65;;;2.58;;
67108;SDS011;54027;50.786;7.058;2023-09-19T05:45:09;8.02;;;2.60;;
67108;SDS011;54027;50.786;7.058;2023-09-19T05:47:41;7.07;;;2.58;;
67108;SDS011;54027;50.786;7.058;2023-09-19T05:50:10;10.88;;;2.25;;
67108;SDS011;54027;50.786;7.058;2023-09-19T05:52:36;14.82;;;2.60;;
67108;SDS011;54027;50.786;7.058;2023-09-19T05:55:05;10.63;;;2.90;;
67108;SDS011;54027;50.786;7.058;2023-09-19T05:57:32;10.05;;;2.72;;
67108;SDS011;54027;50.786;7.058;2023-09-19T05:59:58;8.85;;;2.65;;
67108;SDS011;54027;50.786;7.058;2023-09-19T06:02:24;13.95;;;3.08;;
67108;SDS011;54027;50.786;7.058;2023-09-19T06:04:52;6.45;;;2.60;;
67108;SDS011;54027;50.786;7.058;2023-09-19T06:07:18;9.35;;;2.45;;
67108;SDS011;54027;50.786;7.058;2023-09-19T06:09:43;15.63;;;2.60;;
67108;SDS011;54027;50.786;7.058;2023-09-19T06:12:08;9.88;;;2.17;;
67108;SDS011;54027;50.786;7.058;2023-09-19T06:14:34;11.90;;;2.72;;
67108;SDS011;54027;50.786;7.058;2023-09-19T06:16:59;12.65;;;2.63;;
67108;SDS011;54027;50.786;7.058;2023-09-19T06:19:25;11.10;;;2.20;;
67108;SDS011;54027;50.786;7.058;2023-09-19T06:21:51;5.00;;;1.70;;
67108;SDS011;54027;50.786;7.058;2023-09-19T06:24:18;12.52;;;2.83;;
67108;SDS011;54027;50.786;7.058;2023-09-19T06:26:44;7.30;;;2.20;;
67108;SDS011;54027;50.786;7.058;2023-09-19T06:29:10;10.23;;;2.45;;
67108;SDS011;54027;50.786;7.058;2023-09-19T06:31:35;7.60;;;2.83;;
67108;SDS011;54027;50.786;7.058;2023-09-19T06:34:01;7.88;;;2.35;;
67108;SDS011;54027;50.786;7.058;2023-09-19T06:36:28;9.73;;;2.05;;
67108;SDS011;54027;50.786;7.058;2023-09-19T06:38:53;8.15;;;2.72;;
67108;SDS011;54027;50.786;7.058;2023-09-19T06:41:18;10.65;;;2.70;;
67108;SDS011;54027;50.786;7.058;2023-09-19T06:43:44;8.77;;;2.67;;
67108;SDS011;54027;50.786;7.058;2023-09-19T06:46:10;7.32;;;2.25;;
67108;SDS011;54027;50.786;7.058;2023-09-19T06:48:35;10.63;;;2.83;;
67108;SDS011;54027;50.786;7.058;2023-09-19T06:51:00;7.45;;;2.22;;
67108;SDS011;54027;50.786;7.058;2023-09-19T06:53:27;16.00;;;2.83;;
67108;SDS011;54027;50.786;7.058;2023-09-19T06:55:56;9.07;;;2.50;;
67108;SDS011;54027;50.786;7.058;2023-09-19T06:58:22;14.07;;;3.03;;
67108;SDS011;54027;50.786;7.058;2023-09-19T07:00:47;8.45;;;2.60;;
67108;SDS011;54027;50.786;7.058;2023-09-19T07:03:15;9.88;;;2.45;;
67108;SDS011;54027;50.786;7.058;2023-09-19T07:05:42;10.07;;;2.20;;
67108;SDS011;54027;50.786;7.058;2023-09-19T07:08:08;8.85;;;2.45;;
67108;SDS011;54027;50.786;7.058;2023-09-19T07:10:37;10.70;;;3.13;;
67108;SDS011;54027;50.786;7.058;2023-09-19T07:13:05;10.90;;;2.25;;
67108;SDS011;54027;50.786;7.058;2023-09-19T07:15:36;13.07;;;2.30;;
67108;SDS011;54027;50.786;7.058;2023-09-19T07:18:11;18.58;;;3.60;;
67108;SDS011;54027;50.786;7.058;2023-09-19T07:20:37;8.55;;;2.45;;
67108;SDS011;54027;50.786;7.058;2023-09-19T07:23:03;8.90;;;2.22;;
67108;SDS011;54027;50.786;7.058;2023-09-19T07:25:29;7.55;;;2.28;;
67108;SDS011;54027;50.786;7.058;2023-09-19T07:27:55;13.13;;;2.78;;
67108;SDS011;54027;50.786;7.058;2023-09-19T07:30:21;14.90;;;3.13;;
67108;SDS011;54027;50.786;7.058;2023-09-19T07:32:47;10.63;;;2.53;;
67108;SDS011;54027;50.786;7.058;2023-09-19T07:35:12;9.45;;;2.67;;
67108;SDS011;54027;50.786;7.058;2023-09-19T07:37:38;10.75;;;3.05;;
67108;SDS011;54027;50.786;7.058;2023-09-19T07:40:04;10.13;;;3.00;;
67108;SDS011;54027;50.786;7.058;2023-09-19T07:42:36;12.75;;;2.58;;
67108;SDS011;54027;50.786;7.058;2023-09-19T07:45:06;9.35;;;2.28;;
67108;SDS011;54027;50.786;7.058;2023-09-19T07:47:32;11.10;;;2.85;;
67108;SDS011;54027;50.786;7.058;2023-09-19T07:49:58;13.65;;;3.13;;
67108;SDS011;54027;50.786;7.058;2023-09-19T07:52:26;12.30;;;3.33;;
67108;SDS011;54027;50.786;7.058;2023-09-19T07:54:52;10.05;;;2.53;;
67108;SDS011;54027;50.786;7.058;2023-09-19T07:57:18;8.98;;;2.47;;
67108;SDS011;54027;50.786;7.058;2023-09-19T07:59:44;12.50;;;3.15;;
67108;SDS011;54027;50.786;7.058;2023-09-19T08:02:10;10.38;;;2.50;;
67108;SDS011;54027;50.786;7.058;2023-09-19T08:04:43;11.13;;;2.50;;
67108;SDS011;54027;50.786;7.058;2023-09-19T08:07:11;11.23;;;2.67;;
67108;SDS011;54027;50.786;7.058;2023-09-19T08:09:38;15.40;;;3.15;;
67108;SDS011;54027;50.786;7.058;2023-09-19T08:12:04;11.18;;;2.55;;
67108;SDS011;54027;50.786;7.058;2023-09-19T08:14:30;12.20;;;2.50;;
67108;SDS011;54027;50.786;7.058;2023-09-19T08:16:58;8.75;;;3.25;;
67108;SDS011;54027;50.786;7.058;2023-09-19T08:19:25;9.65;;;2.47;;
67108;SDS011;54027;50.786;7.058;2023-09-19T08:21:56;12.60;;;2.67;;
67108;SDS011;54027;50.786;7.058;2023-09-19T08:24:26;11.45;;;2.65;;
67108;SDS011;54027;50.786;7.058;2023-09-19T08:26:54;10.68;;;2.33;;
67108;SDS011;54027;50.786;7.058;2023-09-19T08:29:23;9.20;;;2.28;;
67108;SDS011;54027;50.786;7.058;2023-09-19T08:31:53;11.85;;;3.05;;
67108;SDS011;54027;50.786;7.058;2023-09-19T08:34:19;8.70;;;2.55;;
67108;SDS011;54027;50.786;7.058;2023-09-19T08:36:46;8.05;;;2.30;;
67108;SDS011;54027;50.786;7.058;2023-09-19T08:39:13;11.93;;;3.03;;
67108;SDS011;54027;50.786;7.058;2023-09-19T08:41:38;14.48;;;2.78;;
67108;SDS011;54027;50.786;7.058;2023-09-19T08:44:04;10.63;;;2.55;;
67108;SDS011;54027;50.786;7.058;2023-09-19T08:46:30;12.38;;;2.50;;
67108;SDS011;54027;50.786;7.058;2023-09-19T08:49:05;8.20;;;1.92;;
67108;SDS011;54027;50.786;7.058;2023-09-19T08:54:06;13.00;;;2.75;;
67108;SDS011;54027;50.786;7.058;2023-09-19T08:56:32;9.88;;;2.90;;
67108;SDS011;54027;50.786;7.058;2023-09-19T08:59:03;9.93;;;2.00;;
67108;SDS011;54027;50.786;7.058;2023-09-19T09:01:37;7.38;;;2.20;;
67108;SDS011;54027;50.786;7.058;2023-09-19T09:04:06;7.15;;;2.05;;
67108;SDS011;54027;50.786;7.058;2023-09-19T09:06:34;8.68;;;2.20;;
67108;SDS011;54027;50.786;7.058;2023-09-19T09:09:01;8.43;;;2.75;;
67108;SDS011;54027;50.786;7.058;2023-09-19T09:11:28;9.18;;;2.20;;
67108;SDS011;54027;50.786;7.058;2023-09-19T09:13:54;8.63;;;2.63;;
67108;SDS011;54027;50.786;7.058;2023-09-19T09:16:19;12.27;;;2.40;;
67108;SDS011;54027;50.786;7.058;2023-09-19T09:18:45;7.45;;;2.28;;
67108;SDS011;54027;50.786;7.058;2023-09-19T09:21:11;9.05;;;2.17;;
67108;SDS011;54027;50.786;7.058;2023-09-19T09:23:39;7.93;;;2.10;;
67108;SDS011;54027;50.786;7.058;2023-09-19T09:26:05;9.02;;;2.35;;
67108;SDS011;54027;50.786;7.058;2023-09-19T09:28:34;5.60;;;2.00;;
67108;SDS011;54027;50.786;7.058;2023-09-19T09:31:01;7.35;;;2.03;;
67108;SDS011;54027;50.786;7.058;2023-09-19T09:33:34;7.50;;;1.80;;
67108;SDS011;54027;50.786;7.058;2023-09-19T09:36:01;9.07;;;1.75;;
67108;SDS011;54027;50.786;7.058;2023-09-19T09:38:47;5.20;;;1.80;;
67108;SDS011;54027;50.786;7.058;2023-09-19T09:41:13;7.63;;;2.50;;
67108;SDS011;54027;50.786;7.058;2023-09-19T09:43:52;11.00;;;2.35;;
67108;SDS011;54027;50.786;7.058;2023-09-19T09:46:19;9.30;;;2.15;;
67108;SDS011;54027;50.786;7.058;2023-09-19T09:48:45;8.02;;;2.00;;
67108;SDS011;54027;50.786;7.058;2023-09-19T09:51:31;5.72;;;1.88;;
67108;SDS011;54027;50.786;7.058;2023-09-19T09:54:13;10.85;;;2.67;;
67108;SDS011;54027;50.786;7.058;2023-09-19T09:59:23;6.90;;;1.92;;
67108;SDS011;54027;50.786;7.058;2023-09-19T10:02:11;7.90;;;1.98;;
67108;SDS011;54027;50.786;7.058;2023-09-19T10:04:39;6.38;;;2.00;;
67108;SDS011;54027;50.786;7.058;2023-09-19T10:07:29;7.28;;;1.77;;
67108;SDS011;54027;50.786;7.058;2023-09-19T10:10:02;9.85;;;2.15;;
67108;SDS011;54027;50.786;7.058;2023-09-19T10:12:48;7.75;;;2.20;;
67108;SDS011;54027;50.786;7.058;2023-09-19T10:15:17;8.43;;;2.60;;
67108;SDS011;54027;50.786;7.058;2023-09-19T10:17:49;6.07;;;1.70;;
67108;SDS011;54027;50.786;7.058;2023-09-19T10:20:19;6.13;;;1.83;;
67108;SDS011;54027;50.786;7.058;2023-09-19T10:23:07;4.60;;;1.80;;
67108;SDS011;54027;50.786;7.058;2023-09-19T10:25:39;7.50;;;2.05;;
67108;SDS011;54027;50.786;7.058;2023-09-19T10:28:06;8.80;;;2.20;;
67108;SDS011;54027;50.786;7.058;2023-09-19T10:30:36;7.20;;;2.65;;
67108;SDS011;54027;50.786;7.058;2023-09-19T10:33:07;4.97;;;1.70;;
67108;SDS011;54027;50.786;7.058;2023-09-19T10:35:32;6.88;;;2.10;;
67108;SDS011;54027;50.786;7.058;2023-09-19T10:38:02;4.13;;;2.05;;
67108;SDS011;54027;50.786;7.058;2023-09-19T10:40:32;6.68;;;1.80;;
67108;SDS011;54027;50.786;7.058;2023-09-19T10:43:00;9.25;;;2.13;;
67108;SDS011;54027;50.786;7.058;2023-09-19T10:45:30;8.35;;;1.80;;
67108;SDS011;54027;50.786;7.058;2023-09-19T10:47:57;7.47;;;2.00;;
67108;SDS011;54027;50.786;7.058;2023-09-19T10:50:23;8.65;;;1.90;;
67108;SDS011;54027;50.786;7.058;2023-09-19T10:52:49;4.82;;;1.50;;
67108;SDS011;54027;50.786;7.058;2023-09-19T10:55:23;4.43;;;1.75;;
67108;SDS011;54027;50.786;7.058;2023-09-19T10:57:50;6.82;;;1.90;;
67108;SDS011;54027;50.786;7.058;2023-09-19T11:00:16;9.23;;;2.33;;
67108;SDS011;54027;50.786;7.058;2023-09-19T11:05:36;6.05;;;1.80;;
67108;SDS011;54027;50.786;7.058;2023-09-19T11:08:09;5.10;;;1.77;;
67108;SDS011;54027;50.786;7.058;2023-09-19T11:13:28;8.23;;;2.13;;
67108;SDS011;54027;50.786;7.058;2023-09-19T11:26:44;7.57;;;2.17;;
67108;SDS011;54027;50.786;7.058;2023-09-19T11:29:26;7.40;;;2.13;;
67108;SDS011;54027;50.786;7.058;2023-09-19T11:31:53;6.72;;;1.90;;
67108;SDS011;54027;50.786;7.058;2023-09-19T11:37:02;6.43;;;2.10;;
67108;SDS011;54027;50.786;7.058;2023-09-19T11:42:47;8.85;;;2.00;;
67108;SDS011;54027;50.786;7.058;2023-09-19T11:46:04;4.03;;;1.85;;
67108;SDS011;54027;50.786;7.058;2023-09-19T11:48:22;6.45;;;2.03;;
67108;SDS011;54027;50.786;7.058;2023-09-19T11:50:52;6.63;;;1.80;;
67108;SDS011;54027;50.786;7.058;2023-09-19T11:53:18;8.50;;;2.25;;
67108;SDS011;54027;50.786;7.058;2023-09-19T11:55:45;6.55;;;1.80;;
67108;SDS011;54027;50.786;7.058;2023-09-19T11:58:11;5.78;;;2.00;;
67108;SDS011;54027;50.786;7.058;2023-09-19T12:00:39;5.75;;;1.60;;
67108;SDS011;54027;50.786;7.058;2023-09-19T12:03:09;6.85;;;1.85;;
67108;SDS011;54027;50.786;7.058;2023-09-19T12:05:36;8.57;;;1.73;;
67108;SDS011;54027;50.786;7.058;2023-09-19T12:08:05;8.63;;;2.33;;
67108;SDS011;54027;50.786;7.058;2023-09-19T12:10:44;5.53;;;1.88;;
67108;SDS011;54027;50.786;7.058;2023-09-19T12:13:20;8.00;;;1.92;;
67108;SDS011;54027;50.786;7.058;2023-09-19T12:15:45;9.27;;;2.45;;
67108;SDS011;54027;50.786;7.058;2023-09-19T12:18:28;7.20;;;2.03;;
67108;SDS011;54027;50.786;7.058;2023-09-19T12:20:54;5.78;;;1.88;;
67108;SDS011;54027;50.786;7.058;2023-09-19T12:23:20;8.15;;;2.47;;
67108;SDS011;54027;50.786;7.058;2023-09-19T12:25:46;4.80;;;1.77;;
67108;SDS011;54027;50.786;7.058;2023-09-19T12:28:12;6.25;;;1.95;;
67108;SDS011;54027;50.786;7.058;2023-09-19T12:30:41;7.43;;;1.85;;
67108;SDS011;54027;50.786;7.058;2023-09-19T12:33:19;7.28;;;2.38;;
67108;SDS011;54027;50.786;7.058;2023-09-19T12:35:46;7.75;;;2.47;;
67108;SDS011;54027;50.786;7.058;2023-09-19T12:38:27;6.40;;;1.85;;
67108;SDS011;54027;50.786;7.058;2023-09-19T12:40:57;6.57;;;1.42;;
67108;SDS011;54027;50.786;7.058;2023-09-19T12:43:28;9.13;;;2.20;;
67108;SDS011;54027;50.786;7.058;2023-09-19T12:45:57;3.97;;;1.50;;
67108;SDS011;54027;50.786;7.058;2023-09-19T12:48:24;5.78;;;1.92;;
67108;SDS011;54027;50.786;7.058;2023-09-19T12:50:59;5.05;;;1.40;;
67108;SDS011;54027;50.786;7.058;2023-09-19T12:53:33;7.32;;;1.58;;
67108;SDS011;54027;50.786;7.058;2023-09-19T12:56:01;6.90;;;1.80;;
67108;SDS011;54027;50.786;7.058;2023-09-19T12:58:27;5.90;;;1.63;;
67108;SDS011;54027;50.786;7.058;2023-09-19T13:00:56;6.35;;;1.45;;
67108;SDS011;54027;50.786;7.058;2023-09-19T13:06:00;6.15;;;1.45;;
67108;SDS011;54027;50.786;7.058;2023-09-19T13:08:35;5.32;;;1.70;;
67108;SDS011;54027;50.786;7.058;2023-09-19T13:11:16;6.38;;;1.85;;
67108;SDS011;54027;50.786;7.058;2023-09-19T13:16:18;3.88;;;1.40;;
67108;SDS011;54027;50.786;7.058;2023-09-19T13:18:48;8.68;;;1.55;;
67108;SDS011;54027;50.786;7.058;2023-09-19T13:21:16;6.00;;;1.67;;
67108;SDS011;54027;50.786;7.058;2023-09-19T13:23:52;5.35;;;1.30;;
67108;SDS011;54027;50.786;7.058;2023-09-19T13:26:23;4.85;;;1.55;;
67108;SDS011;54027;50.786;7.058;2023-09-19T13:28:49;4.80;;;1.55;;
67108;SDS011;54027;50.786;7.058;2023-09-19T13:31:15;7.47;;;1.90;;
67108;SDS011;54027;50.786;7.058;2023-09-19T13:33:44;3.00;;;1.05;;
67108;SDS011;54027;50.786;7.058;2023-09-19T13:36:11;4.30;;;1.23;;
67108;SDS011;54027;50.786;7.058;2023-09-19T13:38:38;6.97;;;1.52;;
67108;SDS011;54027;50.786;7.058;2023-09-19T13:41:05;6.32;;;1.40;;
67108;SDS011;54027;50.786;7.058;2023-09-19T13:43:31;3.90;;;1.60;;
67108;SDS011;54027;50.786;7.058;2023-09-19T13:45:56;7.45;;;1.40;;
67108;SDS011;54027;50.786;7.058;2023-09-19T13:48:22;2.53;;;0.98;;
67108;SDS011;54027;50.786;7.058;2023-09-19T13:50:48;4.00;;;0.82;;
67108;SDS011;54027;50.786;7.058;2023-09-19T13:53:14;5.75;;;1.40;;
67108;SDS011;54027;50.786;7.058;2023-09-19T13:55:39;2.28;;;1.00;;
67108;SDS011;54027;50.786;7.058;2023-09-19T13:58:05;4.97;;;1.10;;
67108;SDS011;54027;50.786;7.058;2023-09-19T14:00:32;6.70;;;1.58;;
67108;SDS011;54027;50.786;7.058;2023-09-19T14:02:59;3.78;;;1.20;;
67108;SDS011;54027;50.786;7.058;2023-09-19T14:05:29;3.80;;;1.38;;
67108;SDS011;54027;50.786;7.058;2023-09-19T14:07:55;3.03;;;1.08;;
67108;SDS011;54027;50.786;7.058;2023-09-19T14:10:28;4.18;;;1.20;;
67108;SDS011;54027;50.786;7.058;2023-09-19T14:12:55;5.13;;;1.23;;
67108;SDS011;54027;50.786;7.058;2023-09-19T14:15:21;4.68;;;1.38;;
67108;SDS011;54027;50.786;7.058;2023-09-19T14:17:54;3.08;;;0.80;;
67108;SDS011;54027;50.786;7.058;2023-09-19T14:20:21;3.60;;;1.27;;
67108;SDS011;54027;50.786;7.058;2023-09-19T14:22:47;2.17;;;0.95;;
67108;SDS011;54027;50.786;7.058;2023-09-19T14:25:13;4.57;;;1.20;;
67108;SDS011;54027;50.786;7.058;2023-09-19T14:27:38;5.80;;;1.10;;
67108;SDS011;54027;50.786;7.058;2023-09-19T14:30:04;4.97;;;1.40;;
67108;SDS011;54027;50.786;7.058;2023-09-19T14:32:31;4.10;;;1.10;;
67108;SDS011;54027;50.786;7.058;2023-09-19T14:34:56;2.85;;;0.98;;
67108;SDS011;54027;50.786;7.058;2023-09-19T14:37:21;2.50;;;0.90;;
67108;SDS011;54027;50.786;7.058;2023-09-19T14:39:47;4.18;;;0.98;;
67108;SDS011;54027;50.786;7.058;2023-09-19T14:42:12;3.25;;;1.10;;
67108;SDS011;54027;50.786;7.058;2023-09-19T14:44:42;6.50;;;1.50;;
67108;SDS011;54027;50.786;7.058;2023-09-19T14:47:08;3.10;;;1.00;;
67108;SDS011;54027;50.786;7.058;2023-09-19T14:49:33;1.83;;;0.95;;
67108;SDS011;54027;50.786;7.058;2023-09-19T14:52:00;4.07;;;1.48;;
67108;SDS011;54027;50.786;7.058;2023-09-19T14:54:28;2.03;;;1.00;;
67108;SDS011;54027;50.786;7.058;2023-09-19T14:56:55;2.47;;;0.85;;
67108;SDS011;54027;50.786;7.058;2023-09-19T14:59:32;2.95;;;0.80;;
67108;SDS011;54027;50.786;7.058;2023-09-19T15:01:59;3.63;;;1.10;;
67108;SDS011;54027;50.786;7.058;2023-09-19T15:04:24;4.93;;;1.10;;
67108;SDS011;54027;50.786;7.058;2023-09-19T15:06:52;4.47;;;1.10;;
67108;SDS011;54027;50.786;7.058;2023-09-19T15:09:19;3.33;;;1.30;;
67108;SDS011;54027;50.786;7.058;2023-09-19T15:11:50;5.20;;;1.55;;
67108;SDS011;54027;50.786;7.058;2023-09-19T15:14:17;3.15;;;1.02;;
67108;SDS011;54027;50.786;7.058;2023-09-19T15:16:43;2.10;;;0.90;;
67108;SDS011;54027;50.786;7.058;2023-09-19T15:19:08;3.33;;;1.02;;
67108;SDS011;54027;50.786;7.058;2023-09-19T15:21:35;4.38;;;1.13;;
67108;SDS011;54027;50.786;7.058;2023-09-19T15:24:02;3.15;;;1.02;;
67108;SDS011;54027;50.786;7.058;2023-09-19T15:26:28;4.97;;;1.20;;
67108;SDS011;54027;50.786;7.058;2023-09-19T15:28:54;3.13;;;1.00;;
67108;SDS011;54027;50.786;7.058;2023-09-19T15:31:20;4.47;;;1.10;;
67108;SDS011;54027;50.786;7.058;2023-09-19T15:33:45;5.78;;;1.30;;
67108;SDS011;54027;50.786;7.058;2023-09-19T15:36:12;2.28;;;1.17;;
67108;SDS011;54027;50.786;7.058;2023-09-19T15:41:37;3.63;;;0.90;;
67108;SDS011;54027;50.786;7.058;2023-09-19T15:44:04;5.25;;;1.30;;